Time;durP1;ratioP1;P1;durP2;ratioP2;P2;SDS_P1;SDS_P2;PMS_P1;PMS_P2;Temp;Humidity;BMP_temperature;BMP_pressure;BME280_temperature;BME280_humidity;BME280_pressure;Samples;Min_cycle;Max_cycle;Signal;HPM_P1;HPM_P2
2022/01/29 00:00:44;;;;;;;66.97;31.10;;;;;;;5.71;100.00;102873.91;5075559;28;20348;-67
2022/01/29 00:03:10;;;;;;;65.00;31.25;;;;;;;5.70;100.00;102871.25;5075622;28;20028;-70
2022/01/29 00:05:35;;;;;;;65.43;31.95;;;;;;;5.66;100.00;102867.63;5075918;28;20036;-68
2022/01/29 00:08:01;;;;;;;62.22;30.02;;;;;;;5.66;100.00;102846.84;5075827;28;20190;-68
2022/01/29 00:10:26;;;;;;;65.30;30.25;;;;;;;5.66;100.00;102844.25;5075085;28;20032;-68
2022/01/29 00:12:51;;;;;;;64.70;31.40;;;;;;;5.66;100.00;102848.56;5075571;28;20097;-69
2022/01/29 00:15:16;;;;;;;61.08;28.23;;;;;;;5.78;100.00;102846.44;5075140;28;20067;-69
2022/01/29 00:17:42;;;;;;;68.35;30.83;;;;;;;5.67;100.00;102827.84;5075429;28;20033;-68
2022/01/29 00:20:08;;;;;;;64.72;30.35;;;;;;;5.78;99.92;102833.44;5075428;28;20064;-68
2022/01/29 00:22:34;;;;;;;70.47;31.27;;;;;;;5.70;100.00;102842.69;5075607;28;20038;-68
2022/01/29 00:24:59;;;;;;;66.43;32.42;;;;;;;5.79;99.76;102830.03;5075938;28;20336;-70
2022/01/29 00:27:28;;;;;;;66.43;30.10;;;;;;;5.78;100.00;102828.25;5075165;28;20028;-68
2022/01/29 00:29:54;;;;;;;66.75;31.90;;;;;;;5.74;100.00;102831.56;5075453;28;20112;-69
2022/01/29 00:32:20;;;;;;;69.85;31.70;;;;;;;5.73;100.00;102824.59;5075306;28;20063;-69
2022/01/29 00:34:45;;;;;;;70.53;31.77;;;;;;;5.79;100.00;102823.13;5075228;28;20422;-68
2022/01/29 00:37:10;;;;;;;66.30;31.10;;;;;;;5.71;100.00;102815.88;5075233;28;20043;-69
2022/01/29 00:39:36;;;;;;;68.05;31.30;;;;;;;5.80;100.00;102821.41;5074730;28;20024;-68
2022/01/29 00:42:03;;;;;;;64.15;31.92;;;;;;;5.79;100.00;102806.66;5075299;28;20059;-70
2022/01/29 00:44:28;;;;;;;63.15;29.67;;;;;;;5.82;100.00;102811.97;5075053;28;20108;-68
2022/01/29 00:46:54;;;;;;;62.38;30.77;;;;;;;5.76;100.00;102812.59;5075112;28;20466;-68
2022/01/29 00:49:19;;;;;;;67.63;32.20;;;;;;;5.78;100.00;102813.53;5074905;28;20040;-68
2022/01/29 00:51:45;;;;;;;62.65;29.88;;;;;;;5.83;100.00;102814.63;5074942;28;20039;-68
2022/01/29 00:54:10;;;;;;;63.55;31.25;;;;;;;5.84;100.00;102811.19;5074815;28;20025;-68
2022/01/29 00:56:36;;;;;;;66.38;32.05;;;;;;;5.67;100.00;102781.09;5074990;28;20451;-68
2022/01/29 00:59:01;;;;;;;71.97;32.25;;;;;;;5.70;100.00;102796.81;5075075;28;20048;-68
2022/01/29 01:01:26;;;;;;;59.75;30.17;;;;;;;5.87;100.00;102803.53;5074892;28;20101;-68
2022/01/29 01:03:51;;;;;;;63.50;31.17;;;;;;;5.78;100.00;102786.69;5075040;28;20028;-67
2022/01/29 01:06:17;;;;;;;66.28;31.48;;;;;;;5.84;100.00;102785.22;5074784;28;20037;-68
2022/01/29 01:08:43;;;;;;;62.08;31.38;;;;;;;5.88;100.00;102787.13;5075027;28;20078;-69
2022/01/29 01:11:08;;;;;;;61.92;31.30;;;;;;;5.80;100.00;102779.84;5074801;28;20115;-69
2022/01/29 01:13:34;;;;;;;65.15;31.17;;;;;;;5.93;100.00;102785.56;5075075;28;20382;-69
2022/01/29 01:16:00;;;;;;;66.95;31.55;;;;;;;5.88;100.00;102779.34;5074570;28;20087;-68
2022/01/29 01:18:26;;;;;;;61.70;30.48;;;;;;;5.96;100.00;102771.81;5074511;28;20040;-68
2022/01/29 01:20:51;;;;;;;63.78;31.17;;;;;;;5.81;100.00;102759.13;5076904;28;20131;-68
2022/01/29 01:23:16;;;;;;;62.17;31.40;;;;;;;5.85;100.00;102750.63;5081405;28;20029;-69
2022/01/29 01:25:42;;;;;;;67.30;30.75;;;;;;;5.80;100.00;102738.28;5081422;28;20032;-69
2022/01/29 01:28:08;;;;;;;64.90;32.33;;;;;;;5.83;100.00;102741.00;5081376;28;20438;-70
2022/01/29 01:30:34;;;;;;;63.25;30.30;;;;;;;5.83;100.00;102728.00;5081021;28;20071;-67
2022/01/29 01:33:02;;;;;;;66.70;31.95;;;;;;;5.90;100.00;102728.28;5081385;28;20078;-67
2022/01/29 01:35:34;;;;;;;63.85;31.50;;;;;;;5.80;100.00;102723.56;5081619;28;20058;-69
2022/01/29 01:38:14;;;;;;;66.38;31.27;;;;;;;5.80;100.00;102720.09;5081130;28;20037;-68
2022/01/29 01:40:43;;;;;;;61.03;27.55;;;;;;;5.80;100.00;102715.78;5081313;28;20112;-67
2022/01/29 01:43:08;;;;;;;62.83;30.75;;;;;;;5.75;100.00;102717.31;5081198;28;20576;-68
2022/01/29 01:45:33;;;;;;;68.13;32.83;;;;;;;5.77;100.00;102722.56;5081314;28;20050;-68
2022/01/29 01:48:03;;;;;;;65.43;31.35;;;;;;;5.73;100.00;102723.28;5081250;28;20028;-68
2022/01/29 01:50:28;;;;;;;59.72;30.83;;;;;;;5.69;100.00;102717.13;5081233;28;20039;-67
2022/01/29 01:52:53;;;;;;;57.65;27.92;;;;;;;5.82;100.00;102721.03;5080958;28;20032;-70
2022/01/29 01:55:19;;;;;;;58.53;28.15;;;;;;;5.74;100.00;102706.88;5081263;28;20036;-69
2022/01/29 01:57:44;;;;;;;62.75;32.28;;;;;;;5.65;100.00;102698.75;5081172;28;20090;-68
2022/01/29 02:00:10;;;;;;;61.70;30.48;;;;;;;5.79;100.00;102707.94;5081170;28;20130;-67
2022/01/29 02:02:36;;;;;;;58.78;29.35;;;;;;;5.78;100.00;102681.06;5081297;28;20116;-69
2022/01/29 02:05:02;;;;;;;60.08;27.90;;;;;;;5.66;100.00;102695.34;5081113;28;20341;-68
2022/01/29 02:07:27;;;;;;;57.42;29.83;;;;;;;5.62;100.00;102698.63;5081457;28;20028;-70
2022/01/29 02:09:53;;;;;;;58.45;27.50;;;;;;;5.67;100.00;102682.41;5080895;28;20028;-67
2022/01/29 02:12:18;;;;;;;56.70;27.15;;;;;;;5.62;100.00;102678.75;5081038;28;20024;-68
2022/01/29 02:14:45;;;;;;;57.88;28.17;;;;;;;5.65;100.00;102668.47;5081257;28;20321;-69
2022/01/29 02:17:11;;;;;;;58.30;28.98;;;;;;;5.56;100.00;102656.03;5080774;28;20091;-70
2022/01/29 02:19:36;;;;;;;52.28;26.67;;;;;;;5.74;100.00;102662.72;5080755;28;20438;-68
2022/01/29 02:22:02;;;;;;;55.70;27.83;;;;;;;5.74;100.00;102668.78;5080810;28;20052;-68
2022/01/29 02:24:28;;;;;;;55.10;27.83;;;;;;;5.74;100.00;102653.22;5081014;28;20044;-69
2022/01/29 02:26:54;;;;;;;52.75;28.42;;;;;;;5.65;100.00;102658.09;5080738;28;20359;-68
2022/01/29 02:29:20;;;;;;;53.80;28.25;;;;;;;5.59;100.00;102656.16;5080783;28;20028;-69
2022/01/29 02:31:52;;;;;;;54.80;28.90;;;;;;;5.54;100.00;102669.81;5080534;28;20032;-69
2022/01/29 02:34:18;;;;;;;55.30;27.55;;;;;;;5.68;100.00;102641.72;5077203;28;20119;-67
2022/01/29 02:36:44;;;;;;;55.67;28.38;;;;;;;5.63;100.00;102651.06;5077500;28;20512;-68
2022/01/29 02:39:11;;;;;;;51.67;27.92;;;;;;;5.59;100.00;102661.34;5077347;28;20037;-69
2022/01/29 02:41:40;;;;;;;56.17;29.40;;;;;;;5.62;100.00;102644.09;5077163;28;20043;-68
2022/01/29 02:44:06;;;;;;;50.60;26.90;;;;;;;5.54;100.00;102644.69;5077703;28;20025;-70
2022/01/29 02:46:48;;;;;;;49.78;26.20;;;;;;;5.69;100.00;102646.09;5077327;28;20038;-69
2022/01/29 02:49:22;;;;;;;54.03;26.85;;;;;;;5.69;100.00;102649.59;5077294;28;20339;-70
2022/01/29 02:51:51;;;;;;;49.95;25.90;;;;;;;5.60;100.00;102633.66;5076782;28;20039;-68
2022/01/29 02:54:17;;;;;;;57.08;27.88;;;;;;;5.59;100.00;102644.88;5076978;28;20028;-69
2022/01/29 02:56:42;;;;;;;54.10;27.17;;;;;;;5.63;100.00;102640.69;5077060;28;20040;-68
2022/01/29 02:59:08;;;;;;;60.33;29.65;;;;;;;5.58;100.00;102644.00;5077320;28;20039;-69
2022/01/29 03:01:33;;;;;;;54.20;28.70;;;;;;;5.60;100.00;102636.25;5077128;28;20444;-68
2022/01/29 03:03:59;;;;;;;57.78;28.95;;;;;;;5.53;100.00;102631.69;5076972;28;20037;-67
2022/01/29 03:06:24;;;;;;;58.08;29.00;;;;;;;5.55;100.00;102628.28;5076993;28;20036;-68
2022/01/29 03:08:50;;;;;;;57.03;28.33;;;;;;;5.57;100.00;102617.97;5076931;28;20206;-68
2022/01/29 03:11:19;;;;;;;54.58;25.63;;;;;;;5.63;100.00;102628.59;5076860;28;20028;-70
2022/01/29 03:13:47;;;;;;;57.40;27.23;;;;;;;5.59;100.00;102631.88;5077069;28;20036;-67
2022/01/29 03:16:12;;;;;;;53.80;28.13;;;;;;;5.50;100.00;102610.81;5076872;28;20055;-70
2022/01/29 03:18:38;;;;;;;47.33;23.02;;;;;;;5.56;100.00;102605.81;5077524;28;20343;-69
2022/01/29 03:21:04;;;;;;;57.75;27.92;;;;;;;5.58;100.00;102604.16;5076494;28;20033;-69
2022/01/29 03:23:29;;;;;;;57.42;29.00;;;;;;;5.53;100.00;102610.91;5076579;28;20436;-67
2022/01/29 03:25:55;;;;;;;61.03;30.00;;;;;;;5.59;100.00;102596.41;5076704;28;20035;-67
2022/01/29 03:28:20;;;;;;;60.33;29.00;;;;;;;5.52;100.00;102596.16;5076665;28;20355;-69
2022/01/29 03:30:45;;;;;;;61.08;29.73;;;;;;;5.66;100.00;102589.75;5076778;28;20126;-68
2022/01/29 03:33:11;;;;;;;55.10;27.90;;;;;;;5.72;100.00;102586.44;5076259;28;20036;-69
2022/01/29 03:35:36;;;;;;;60.60;27.45;;;;;;;5.75;100.00;102579.66;5076452;28;20033;-67
2022/01/29 03:38:02;;;;;;;57.60;27.70;;;;;;;5.57;100.00;102572.09;5076507;28;20483;-68
2022/01/29 03:40:29;;;;;;;58.45;28.05;;;;;;;5.75;100.00;102590.03;5076238;28;20082;-67
2022/01/29 03:43:01;;;;;;;57.10;29.08;;;;;;;5.70;100.00;102575.16;5076452;28;20450;-70
2022/01/29 03:45:27;;;;;;;62.03;28.20;;;;;;;5.69;100.00;102578.56;5075089;28;20432;-68
2022/01/29 03:47:52;;;;;;;63.33;29.40;;;;;;;5.76;100.00;102572.75;5076274;28;20045;-67
2022/01/29 03:50:17;;;;;;;60.00;28.80;;;;;;;5.63;100.00;102554.97;5076247;28;20119;-68
2022/01/29 03:52:43;;;;;;;58.45;26.73;;;;;;;5.75;100.00;102558.88;5076092;28;20123;-68
2022/01/29 03:55:08;;;;;;;54.40;24.73;;;;;;;5.70;100.00;102559.56;5076327;28;20037;-68
2022/01/29 03:57:33;;;;;;;51.97;27.17;;;;;;;5.70;100.00;102560.44;5076010;28;20037;-69
2022/01/29 03:59:59;;;;;;;56.33;27.17;;;;;;;5.78;100.00;102571.09;5076301;28;20162;-69
2022/01/29 04:02:24;;;;;;;61.85;27.83;;;;;;;5.74;100.00;102570.09;5075909;28;20356;-68
2022/01/29 04:04:49;;;;;;;50.05;25.50;;;;;;;5.83;100.00;102557.44;5075780;28;20117;-68
2022/01/29 04:07:14;;;;;;;52.95;25.75;;;;;;;5.87;100.00;102558.41;5076055;28;20071;-69
2022/01/29 04:09:47;;;;;;;49.70;24.33;;;;;;;5.86;100.00;102561.84;5075919;28;20032;-68
2022/01/29 04:12:13;;;;;;;;;;;;;;;5.89;100.00;102564.56;5076287;28;20047;-67
2022/01/29 04:14:39;;;;;;;49.33;23.65;;;;;;;5.88;100.00;102565.38;5075857;28;19916;-69
2022/01/29 04:17:05;;;;;;;47.60;23.45;;;;;;;5.85;100.00;102562.69;5075909;28;20052;-68
2022/01/29 04:19:31;;;;;;;46.92;23.45;;;;;;;5.84;100.00;102561.78;5075466;28;20040;-69
2022/01/29 04:21:57;;;;;;;49.25;23.27;;;;;;;5.88;100.00;102553.31;5075608;28;20420;-69
2022/01/29 04:24:22;;;;;;;48.55;24.55;;;;;;;5.91;100.00;102543.00;5075454;28;20034;-69
2022/01/29 04:26:47;;;;;;;46.80;23.45;;;;;;;5.92;100.00;102551.66;5075718;28;20028;-68
2022/01/29 04:29:12;;;;;;;45.72;23.10;;;;;;;5.90;100.00;102548.13;5075555;28;20071;-69
2022/01/29 04:31:47;;;;;;;44.83;22.70;;;;;;;5.99;100.00;102540.66;5075362;28;20029;-68
2022/01/29 04:34:13;;;;;;;46.85;23.23;;;;;;;5.90;100.00;102530.81;5075398;28;20028;-69
2022/01/29 04:36:38;;;;;;;48.45;23.17;;;;;;;5.98;100.00;102538.88;5075312;28;20032;-68
2022/01/29 04:39:03;;;;;;;47.40;23.85;;;;;;;6.06;100.00;102536.56;5075511;28;20450;-69
2022/01/29 04:41:29;;;;;;;41.65;19.95;;;;;;;5.97;100.00;102536.22;5075467;28;20040;-68
2022/01/29 04:43:54;;;;;;;47.17;24.83;;;;;;;6.02;100.00;102543.34;5075218;28;20028;-67
2022/01/29 04:46:19;;;;;;;51.63;24.65;;;;;;;5.96;100.00;102535.34;5075143;28;20029;-68
2022/01/29 04:48:44;;;;;;;43.08;19.85;;;;;;;6.15;100.00;102535.13;5075192;28;20376;-67
2022/01/29 04:51:10;;;;;;;48.75;24.15;;;;;;;6.11;100.00;102534.97;5075154;28;20032;-69
2022/01/29 04:53:36;;;;;;;49.00;24.52;;;;;;;6.13;100.00;102523.78;5075093;28;20048;-69
2022/01/29 04:56:01;;;;;;;52.13;25.65;;;;;;;6.09;100.00;102521.03;5074721;28;20117;-69
2022/01/29 04:58:26;;;;;;;50.05;24.92;;;;;;;6.11;100.00;102530.66;5075098;28;20113;-69
2022/01/29 05:00:52;;;;;;;52.97;25.48;;;;;;;6.14;100.00;102522.94;5075162;28;20036;-67
2022/01/29 05:03:17;;;;;;;52.55;24.67;;;;;;;6.14;100.00;102509.94;5075067;28;20114;-68
2022/01/29 05:05:43;;;;;;;51.92;25.45;;;;;;;6.27;100.00;102516.41;5074902;28;20032;-69
2022/01/29 05:08:09;;;;;;;50.78;25.38;;;;;;;6.18;100.00;102504.03;5075381;28;20025;-68
2022/01/29 05:10:35;;;;;;;57.95;26.63;;;;;;;6.20;100.00;102511.88;5074988;28;20434;-69
2022/01/29 05:28:51;;;;;;;57.08;27.00;;;;;;;6.32;100.00;102481.03;5074977;28;20048;-70
2022/01/29 05:31:17;;;;;;;54.22;26.73;;;;;;;6.26;100.00;102480.84;5074722;28;20033;-68
2022/01/29 05:33:42;;;;;;;58.20;27.85;;;;;;;6.27;100.00;102480.00;5074952;28;20052;-69
2022/01/29 05:36:07;;;;;;;57.75;27.45;;;;;;;6.28;100.00;102474.84;5075010;28;20036;-70
2022/01/29 05:38:34;;;;;;;61.50;28.73;;;;;;;6.33;100.00;102480.22;5074847;28;20040;-69
2022/01/29 05:40:59;;;;;;;58.53;29.17;;;;;;;6.28;100.00;102485.25;5074881;28;20036;-68
2022/01/29 05:43:24;;;;;;;61.17;27.98;;;;;;;6.37;100.00;102483.78;5074120;28;20483;-67
2022/01/29 05:45:50;;;;;;;57.05;28.23;;;;;;;6.33;100.00;102492.31;5075006;28;20078;-67
2022/01/29 05:48:15;;;;;;;57.45;28.13;;;;;;;6.38;100.00;102493.34;5074839;28;20343;-68
2022/01/29 05:50:41;;;;;;;55.15;26.65;;;;;;;6.38;100.00;102482.97;5074446;28;20033;-68
2022/01/29 05:53:06;;;;;;;61.92;29.10;;;;;;;6.38;100.00;102485.56;5075015;28;20081;-68
2022/01/29 05:55:31;;;;;;;61.60;28.40;;;;;;;6.40;100.00;102484.78;5074219;28;20427;-68
2022/01/29 05:57:57;;;;;;;58.60;28.85;;;;;;;6.46;100.00;102481.44;5074602;28;20033;-69
2022/01/29 06:00:22;;;;;;;58.13;28.63;;;;;;;6.46;100.00;102477.13;5074277;28;20028;-68
2022/01/29 06:02:57;;;;;;;60.30;27.42;;;;;;;6.50;100.00;102463.38;5074496;28;20446;-68
2022/01/29 06:05:23;;;;;;;60.75;29.40;;;;;;;6.45;100.00;102464.97;5074258;28;20032;-68
2022/01/29 06:07:48;;;;;;;60.78;31.05;;;;;;;6.46;100.00;102471.94;5075245;28;20082;-69
2022/01/29 06:10:13;;;;;;;62.28;29.70;;;;;;;6.50;100.00;102478.09;5078310;28;20350;-69
2022/01/29 06:12:39;;;;;;;61.63;29.65;;;;;;;6.47;100.00;102462.41;5078329;28;20036;-68
2022/01/29 06:15:04;;;;;;;60.28;29.27;;;;;;;6.49;100.00;102463.34;5077959;28;20119;-68
2022/01/29 06:17:30;;;;;;;55.10;28.35;;;;;;;6.51;100.00;102459.94;5077785;28;20106;-67
2022/01/29 06:19:55;;;;;;;57.50;28.98;;;;;;;6.46;100.00;102453.72;5077825;28;20021;-68
2022/01/29 06:22:20;;;;;;;58.75;29.88;;;;;;;6.48;100.00;102448.56;5078642;28;20119;-68
2022/01/29 06:24:45;;;;;;;60.50;29.27;;;;;;;6.49;100.00;102445.13;5078207;28;20024;-68
2022/01/29 06:27:11;;;;;;;61.28;29.90;;;;;;;6.58;100.00;102456.66;5077575;28;20115;-71
2022/01/29 06:29:36;;;;;;;59.65;29.70;;;;;;;6.60;100.00;102444.59;5078150;28;20037;-71
2022/01/29 06:32:02;;;;;;;58.22;30.02;;;;;;;6.55;100.00;102451.41;5077657;28;20036;-68
2022/01/29 06:34:27;;;;;;;60.05;28.27;;;;;;;6.66;100.00;102456.03;5078489;28;20035;-69
2022/01/29 06:36:52;;;;;;;55.10;28.65;;;;;;;6.64;100.00;102458.56;5077471;28;20047;-62
2022/01/29 06:39:18;;;;;;;58.75;29.13;;;;;;;6.55;100.00;102441.00;5077509;28;20036;-68
2022/01/29 06:41:43;;;;;;;58.92;28.48;;;;;;;6.57;100.00;102443.66;5080291;28;20040;-69
2022/01/29 06:44:08;;;;;;;60.40;29.95;;;;;;;6.64;100.00;102453.38;5086227;28;20091;-67
2022/01/29 06:46:34;;;;;;;57.05;28.25;;;;;;;6.61;100.00;102448.06;5087169;28;20058;-68
2022/01/29 06:48:59;;;;;;;55.00;28.42;;;;;;;6.63;100.00;102434.28;5087869;28;20048;-68
2022/01/29 06:51:24;;;;;;;58.25;29.23;;;;;;;6.64;100.00;102437.75;5085662;28;20035;-67
2022/01/29 06:53:49;;;;;;;56.58;28.70;;;;;;;6.66;100.00;102428.28;5087468;28;20028;-69
2022/01/29 06:56:15;;;;;;;56.42;29.00;;;;;;;6.62;100.00;102432.53;5087230;28;20032;-68
2022/01/29 06:58:40;;;;;;;55.85;28.60;;;;;;;6.66;100.00;102430.00;5085927;28;20046;-67
2022/01/29 07:01:05;;;;;;;48.55;22.70;;;;;;;6.70;100.00;102427.53;5088672;28;20028;-68
2022/01/29 07:03:31;;;;;;;57.85;29.35;;;;;;;6.74;100.00;102415.50;5097539;28;20067;-68
2022/01/29 07:05:56;;;;;;;56.92;28.98;;;;;;;6.77;100.00;102418.16;5097404;28;20055;-69
2022/01/29 07:08:22;;;;;;;57.53;28.90;;;;;;;6.74;100.00;102418.13;5097292;28;20443;-69
2022/01/29 07:10:49;;;;;;;55.75;29.02;;;;;;;6.89;100.00;102422.00;5097317;28;20024;-68
2022/01/29 07:13:14;;;;;;;55.83;27.75;;;;;;;6.77;100.00;102407.75;5097293;28;20039;-68
2022/01/29 07:15:39;;;;;;;53.83;28.17;;;;;;;6.89;100.00;102410.72;5097249;28;20047;-68
2022/01/29 07:18:05;;;;;;;52.13;28.15;;;;;;;6.86;100.00;102413.22;5097268;28;20035;-68
2022/01/29 07:20:30;;;;;;;55.88;28.58;;;;;;;6.79;100.00;102399.16;5096636;28;20051;-71
2022/01/29 07:22:55;;;;;;;51.03;27.08;;;;;;;6.90;100.00;102408.16;5096780;28;20024;-70
2022/01/29 07:25:21;;;;;;;52.53;27.55;;;;;;;6.80;100.00;102406.13;5097229;28;20070;-70
2022/01/29 07:27:46;;;;;;;51.83;27.38;;;;;;;6.90;100.00;102409.88;5096933;28;20028;-69
2022/01/29 07:30:11;;;;;;;50.47;26.73;;;;;;;6.82;100.00;102404.47;5097095;28;20105;-70
2022/01/29 07:32:42;;;;;;;51.58;27.05;;;;;;;6.86;100.00;102405.44;5097081;28;20054;-70
2022/01/29 07:35:07;;;;;;;50.33;27.58;;;;;;;6.86;100.00;102402.81;5091601;28;20036;-68
2022/01/29 07:37:33;;;;;;;57.15;29.00;;;;;;;6.82;100.00;102391.44;5092734;28;20065;-68
2022/01/29 07:39:58;;;;;;;51.42;28.15;;;;;;;6.92;100.00;102413.41;5096478;28;20464;-68
2022/01/29 07:42:23;;;;;;;53.22;27.65;;;;;;;6.98;100.00;102406.63;5096372;28;20111;-67
2022/01/29 07:44:48;;;;;;;52.47;28.27;;;;;;;6.95;100.00;102408.25;5096597;28;20024;-67
2022/01/29 07:47:14;;;;;;;52.92;26.90;;;;;;;6.93;100.00;102404.72;5096963;28;20032;-68
2022/01/29 07:49:39;;;;;;;52.10;27.85;;;;;;;6.92;100.00;102403.88;5096615;28;20055;-70
2022/01/29 07:52:04;;;;;;;55.00;28.27;;;;;;;6.97;100.00;102407.47;5096021;28;20028;-70
2022/01/29 07:54:30;;;;;;;50.25;26.77;;;;;;;6.95;100.00;102406.53;5096407;28;20078;-70
2022/01/29 07:56:55;;;;;;;52.28;27.25;;;;;;;6.95;100.00;102390.91;5096611;28;20067;-68
2022/01/29 07:59:20;;;;;;;51.42;28.13;;;;;;;7.01;100.00;102390.22;5096122;28;20024;-69
2022/01/29 08:01:46;;;;;;;51.60;27.02;;;;;;;7.10;100.00;102395.63;5095904;28;20043;-67
2022/01/29 08:04:11;;;;;;;53.95;27.30;;;;;;;7.11;100.00;102381.78;5096134;28;20031;-69
2022/01/29 08:06:36;;;;;;;50.10;27.30;;;;;;;7.10;100.00;102380.03;5096064;28;20027;-68
2022/01/29 08:09:01;;;;;;;51.03;27.30;;;;;;;7.19;100.00;102387.19;5096033;28;20377;-68
2022/01/29 08:11:27;;;;;;;51.20;28.35;;;;;;;7.22;100.00;102379.47;5096128;28;20039;-67
2022/01/29 08:13:52;;;;;;;47.30;25.85;;;;;;;7.30;100.00;102375.31;5095701;28;20036;-68
2022/01/29 08:16:17;;;;;;;48.83;25.98;;;;;;;7.38;100.00;102381.59;5096371;28;20092;-68
2022/01/29 08:18:43;;;;;;;52.13;28.35;;;;;;;7.40;100.00;102377.31;5096230;28;20042;-67
2022/01/29 08:21:16;;;;;;;43.17;25.10;;;;;;;7.48;100.00;102380.97;5095852;28;20115;-67
2022/01/29 08:23:41;;;;;;;45.45;26.83;;;;;;;7.55;100.00;102376.78;5095879;28;20439;-68
2022/01/29 08:26:07;;;;;;;45.78;27.38;;;;;;;7.52;100.00;102363.69;5095973;28;20120;-69
2022/01/29 08:28:32;;;;;;;47.40;26.75;;;;;;;7.56;100.00;102365.53;5095929;28;20043;-68
2022/01/29 08:30:58;;;;;;;45.83;26.15;;;;;;;7.50;100.00;102350.63;5095386;28;20028;-69
2022/01/29 08:33:23;;;;;;;45.13;26.33;;;;;;;7.67;100.00;102372.75;5095482;28;20032;-67
2022/01/29 08:35:48;;;;;;;42.70;25.95;;;;;;;7.68;100.00;102373.63;5095632;28;20028;-68
2022/01/29 08:38:14;;;;;;;42.72;24.67;;;;;;;7.73;100.00;102363.31;5095554;28;20035;-66
2022/01/29 08:40:40;;;;;;;41.75;25.67;;;;;;;7.68;100.00;102353.66;5095525;28;20032;-69
2022/01/29 08:43:05;;;;;;;43.60;25.55;;;;;;;7.79;100.00;102355.66;5095427;28;20089;-62
2022/01/29 08:45:30;;;;;;;43.50;25.98;;;;;;;7.71;100.00;102350.25;5095580;28;20031;-67
2022/01/29 08:47:56;;;;;;;40.63;25.05;;;;;;;7.76;100.00;102350.34;5095559;28;20028;-68
2022/01/29 08:50:21;;;;;;;41.47;23.58;;;;;;;7.80;100.00;102354.75;5095295;28;20036;-68
2022/01/29 08:52:47;;;;;;;40.22;25.10;;;;;;;7.81;100.00;102331.34;5095344;28;20116;-68
2022/01/29 08:55:12;;;;;;;39.97;24.95;;;;;;;7.81;100.00;102339.16;5095540;28;20054;-67
2022/01/29 08:57:38;;;;;;;41.80;25.45;;;;;;;7.94;100.00;102356.84;5095240;28;20028;-67
2022/01/29 09:00:06;;;;;;;39.00;25.35;;;;;;;7.86;100.00;102347.09;5095195;28;20093;-67
2022/01/29 09:02:31;;;;;;;38.15;24.13;;;;;;;7.91;100.00;102348.97;5092729;28;20065;-68
2022/01/29 09:04:57;;;;;;;40.92;24.95;;;;;;;7.91;100.00;102348.09;5085440;28;20107;-68
2022/01/29 09:07:23;;;;;;;40.10;23.75;;;;;;;7.90;100.00;102335.91;5095530;28;20422;-68
2022/01/29 09:09:48;;;;;;;41.05;23.65;;;;;;;7.94;100.00;102338.59;5085377;28;20095;-67
2022/01/29 09:12:13;;;;;;;38.05;23.35;;;;;;;7.93;100.00;102328.16;5085227;28;20036;-67
2022/01/29 09:14:40;;;;;;;39.65;22.75;;;;;;;7.98;100.00;102324.78;5080389;28;20021;-67
2022/01/29 09:17:05;;;;;;;36.17;20.58;;;;;;;8.07;100.00;102324.09;5074685;28;20180;-67
2022/01/29 09:19:31;;;;;;;36.53;23.38;;;;;;;8.06;100.00;102316.25;5074931;28;20032;-68
2022/01/29 09:21:56;;;;;;;39.72;22.75;;;;;;;8.07;100.00;102318.00;5078569;28;20162;-66
2022/01/29 09:24:22;;;;;;;33.50;21.15;;;;;;;8.12;100.00;102322.47;5083836;28;20077;-70
2022/01/29 09:26:47;;;;;;;33.15;21.65;;;;;;;7.99;100.00;102300.47;5084363;28;20459;-69
2022/01/29 09:29:12;;;;;;;35.05;21.67;;;;;;;8.13;100.00;102311.19;5083267;28;20032;-69
2022/01/29 09:31:38;;;;;;;35.17;21.27;;;;;;;8.16;100.00;102310.34;5079757;28;20066;-61
2022/01/29 09:34:03;;;;;;;32.60;20.02;;;;;;;8.20;100.00;102320.88;5082372;28;20132;-65
2022/01/29 09:36:29;;;;;;;34.60;20.77;;;;;;;8.24;100.00;102325.31;5083173;28;20425;-66
2022/01/29 09:38:54;;;;;;;31.13;19.95;;;;;;;8.27;100.00;102324.50;5084144;28;20332;-66
2022/01/29 09:41:24;;;;;;;33.55;20.00;;;;;;;8.27;100.00;102329.72;5085143;28;20028;-65
2022/01/29 09:43:50;;;;;;;34.92;20.08;;;;;;;8.17;100.00;102314.72;5087247;28;20438;-67
2022/01/29 09:46:16;;;;;;;32.17;19.75;;;;;;;8.37;100.00;102324.72;5087159;28;20028;-65
2022/01/29 09:48:42;;;;;;;30.35;19.73;;;;;;;8.31;100.00;102321.97;5086590;28;20461;-65
2022/01/29 09:51:12;;;;;;;29.58;20.00;;;;;;;8.30;100.00;102330.66;5091455;28;20066;-66
2022/01/29 09:53:37;;;;;;;32.25;20.02;;;;;;;8.34;100.00;102335.09;5093454;28;20109;-64
2022/01/29 09:56:03;;;;;;;33.03;19.80;;;;;;;8.29;100.00;102325.41;5081687;28;20374;-67
2022/01/29 09:58:28;;;;;;;29.65;19.95;;;;;;;8.31;100.00;102323.72;5086391;28;20458;-68
2022/01/29 10:00:54;;;;;;;29.50;19.73;;;;;;;8.34;100.00;102329.88;5078172;28;20431;-72
2022/01/29 10:03:20;;;;;;;30.60;19.80;;;;;;;8.32;100.00;102330.69;5083566;28;20028;-68
2022/01/29 10:05:53;;;;;;;34.22;19.80;;;;;;;8.39;100.00;102332.59;5087110;28;20028;-68
2022/01/29 10:08:20;;;;;;;32.00;19.30;;;;;;;8.55;100.00;102324.19;5091273;28;20458;-68
2022/01/29 10:10:47;;;;;;;32.22;19.67;;;;;;;8.55;100.00;102325.94;5094636;28;20074;-68
2022/01/29 10:13:26;;;;;;;31.60;19.98;;;;;;;8.67;100.00;102323.53;5094985;28;20081;-69
2022/01/29 10:16:02;;;;;;;32.45;20.05;;;;;;;8.56;100.00;102304.22;5098160;28;20063;-69
2022/01/29 10:18:28;;;;;;;29.13;19.65;;;;;;;8.64;100.00;102315.69;5098340;28;20092;-69
2022/01/29 10:21:07;;;;;;;30.50;21.10;;;;;;;8.68;100.00;102312.25;5098264;28;20028;-70
2022/01/29 10:23:32;;;;;;;31.40;20.15;;;;;;;8.72;100.00;102314.94;5098283;28;20039;-68
2022/01/29 10:25:58;;;;;;;28.88;19.17;;;;;;;8.76;100.00;102309.78;5098400;28;20085;-69
2022/01/29 10:28:23;;;;;;;28.35;20.77;;;;;;;8.84;100.00;102301.22;5094548;28;20036;-70
2022/01/29 10:30:48;;;;;;;29.95;20.60;;;;;;;8.89;100.00;102299.56;5078122;28;20047;-69
2022/01/29 10:33:23;;;;;;;28.03;19.33;;;;;;;8.95;100.00;102298.81;5077464;28;20086;-67
2022/01/29 10:35:52;;;;;;;28.27;19.50;;;;;;;9.00;100.00;102286.72;5077796;28;20043;-69
2022/01/29 10:38:20;;;;;;;30.05;19.27;;;;;;;9.02;100.00;102278.03;5077699;28;20150;-69
2022/01/29 10:40:46;;;;;;;29.08;19.52;;;;;;;9.04;100.00;102276.31;5077282;28;20445;-69
2022/01/29 10:43:11;;;;;;;24.92;18.33;;;;;;;9.05;100.00;102264.16;5079997;28;20171;-69
2022/01/29 10:45:37;;;;;;;29.45;19.45;;;;;;;9.10;100.00;102288.59;5089160;28;20162;-67
2022/01/29 10:48:04;;;;;;;27.00;18.55;;;;;;;9.13;100.00;102273.00;5095614;28;20040;-69
2022/01/29 10:50:31;;;;;;;27.70;18.83;;;;;;;9.11;100.00;102261.63;5093941;28;20773;-68
2022/01/29 10:52:57;;;;;;;25.75;18.05;;;;;;;9.13;100.00;102273.00;5087338;28;20024;-69
2022/01/29 10:55:23;;;;;;;21.48;16.27;;;;;;;9.13;100.00;102252.09;5079102;28;20029;-69
2022/01/29 10:57:49;;;;;;;25.05;16.65;;;;;;;9.19;100.00;102265.22;5080342;28;20043;-70
2022/01/29 11:00:22;;;;;;;20.65;16.13;;;;;;;9.30;100.00;102262.78;5087347;28;20032;-68
2022/01/29 11:02:49;;;;;;;21.45;15.57;;;;;;;9.28;100.00;102254.94;5087916;28;20032;-69
2022/01/29 11:05:15;;;;;;;20.10;15.73;;;;;;;9.37;100.00;102262.00;5088353;28;20028;-69
2022/01/29 11:07:46;;;;;;;20.63;14.52;;;;;;;9.32;100.00;102246.28;5082436;28;20123;-69
2022/01/29 11:10:11;;;;;;;20.23;14.35;;;;;;;9.38;100.00;102242.88;5084547;28;20032;-69
2022/01/29 11:12:42;;;;;;;19.55;13.80;;;;;;;9.37;100.00;102239.38;5077114;28;20055;-69
2022/01/29 11:15:08;;;;;;;16.23;12.25;;;;;;;9.50;100.00;102230.00;5082461;28;20459;-69
2022/01/29 11:17:33;;;;;;;18.73;12.50;;;;;;;9.58;100.00;102238.78;5086203;28;20059;-69
2022/01/29 11:20:00;;;;;;;15.15;11.48;;;;;;;9.62;100.00;102234.50;5094832;28;20442;-70